createdAt,value
2023-06-05T00:00:08.496Z,42.34
2023-06-05T00:01:09.741Z,43.97
2023-06-05T00:02:08.719Z,41.66
2023-06-05T00:03:08.812Z,41.78
2023-06-05T00:04:09.960Z,40.04
2023-06-05T00:05:09.975Z,40.14
2023-06-05T00:06:08.991Z,42.59
2023-06-05T00:07:08.974Z,45.04
2023-06-05T00:08:10.149Z,36.96
2023-06-05T00:09:10.070Z,43.01
2023-06-05T00:10:10.141Z,43.01
2023-06-05T00:11:10.410Z,44.68
2023-06-05T00:12:09.225Z,40.21
2023-06-05T00:13:10.262Z,43.51
2023-06-05T00:14:09.322Z,42.21
2023-06-05T00:15:10.389Z,41.70
2023-06-05T00:16:10.513Z,39.30
2023-06-05T00:17:10.553Z,43.01
2023-06-05T00:18:09.666Z,41.26
2023-06-05T00:19:09.669Z,41.92
2023-06-05T00:20:11.447Z,44.63
2023-06-05T00:21:09.899Z,39.03
2023-06-05T00:22:10.805Z,42.72
2023-06-05T00:23:09.866Z,40.68
2023-06-05T00:24:09.964Z,42.65
2023-06-05T00:25:10.061Z,43.27
2023-06-05T00:26:10.053Z,42.62
2023-06-05T00:27:11.161Z,42.66
2023-06-05T00:28:10.230Z,37.59
2023-06-05T00:29:11.402Z,42.13
2023-06-05T00:30:11.350Z,42.61
2023-06-05T00:31:11.580Z,41.49
2023-06-05T00:32:10.427Z,41.79
2023-06-05T00:33:10.550Z,43.32
2023-06-05T00:34:11.548Z,39.79
2023-06-05T00:35:11.630Z,36.62
2023-06-05T00:36:10.600Z,34.73
2023-06-05T00:37:11.683Z,44.82
2023-06-05T00:38:10.702Z,40.05
2023-06-05T00:39:11.803Z,43.21
2023-06-05T00:40:10.778Z,41.78
2023-06-05T00:41:11.832Z,40.44
2023-06-05T00:42:10.855Z,40.47
2023-06-05T00:43:11.875Z,41.43
2023-06-05T00:44:11.898Z,42.45
2023-06-05T00:45:11.959Z,44.27
2023-06-05T00:46:10.994Z,40.19
2023-06-05T00:47:12.031Z,42.37
2023-06-05T00:48:11.043Z,42.71
2023-06-05T00:49:12.074Z,43.50
2023-06-05T00:50:11.140Z,40.83
2023-06-05T00:51:12.208Z,37.38
2023-06-05T00:52:11.409Z,43.54
2023-06-05T00:53:11.358Z,36.32
2023-06-05T00:54:12.380Z,40.31
2023-06-05T00:55:12.444Z,42.72
2023-06-05T00:56:12.488Z,39.91
2023-06-05T00:57:12.587Z,41.07
2023-06-05T00:58:11.707Z,42.31
2023-06-05T00:59:11.680Z,43.37
2023-06-05T01:00:12.695Z,37.08
2023-06-05T01:01:11.962Z,43.38
2023-06-05T01:02:11.886Z,42.43
2023-06-05T01:03:12.089Z,42.61
2023-06-05T01:04:11.966Z,42.28
2023-06-05T01:05:13.030Z,40.04
2023-06-05T01:06:13.082Z,39.89
2023-06-05T01:07:12.173Z,40.46
2023-06-05T01:08:12.207Z,42.13
2023-06-05T01:09:12.280Z,42.33
2023-06-05T01:10:13.338Z,39.84
2023-06-05T01:11:13.397Z,41.57
2023-06-05T01:12:13.472Z,43.08
2023-06-05T01:13:13.520Z,41.02
2023-06-05T01:14:12.603Z,39.66
2023-06-05T01:15:12.680Z,41.85
2023-06-05T01:16:13.715Z,39.92
2023-06-05T01:17:12.900Z,40.84
2023-06-05T01:18:13.866Z,43.55
2023-06-05T01:19:12.925Z,42.29
2023-06-05T01:20:13.021Z,40.43
2023-06-05T01:21:13.067Z,41.75
2023-06-05T01:22:14.111Z,41.52
2023-06-05T01:23:14.178Z,41.54
2023-06-05T01:24:13.255Z,40.73
2023-06-05T01:25:14.308Z,40.65
2023-06-05T01:26:14.420Z,40.14
2023-06-05T01:27:14.419Z,38.48
2023-06-05T01:28:13.487Z,40.47
2023-06-05T01:29:14.542Z,39.97
2023-06-05T01:30:14.582Z,42.54
2023-06-05T01:31:13.653Z,40.87
2023-06-05T01:32:14.678Z,37.74
2023-06-05T01:33:13.856Z,40.46
2023-06-05T01:34:14.790Z,37.48
2023-06-05T01:35:14.853Z,42.68
2023-06-05T01:36:14.931Z,41.87
2023-06-05T01:37:14.972Z,40.56
2023-06-05T01:38:14.047Z,43.37
2023-06-05T01:39:14.127Z,39.89
2023-06-05T01:40:14.097Z,41.47
2023-06-05T01:41:14.147Z,32.83
2023-06-05T01:42:14.171Z,37.57
2023-06-05T01:43:14.251Z,37.93
2023-06-05T01:44:14.273Z,40.18
2023-06-05T01:45:14.244Z,42.39
2023-06-05T01:46:14.308Z,38.65
2023-06-05T01:47:15.272Z,40.69
2023-06-05T01:48:15.279Z,40.47
2023-06-05T01:49:14.321Z,40.38
2023-06-05T01:50:14.394Z,40.91
2023-06-05T01:51:14.313Z,41.14
2023-06-05T01:52:15.357Z,40.36
2023-06-05T01:53:15.370Z,41.32
2023-06-05T01:54:14.388Z,39.42
2023-06-05T01:55:15.393Z,40.19
2023-06-05T01:56:14.479Z,38.95
2023-06-05T01:57:15.579Z,41.33
2023-06-05T01:58:14.560Z,38.55
2023-06-05T01:59:15.663Z,35.95
2023-06-05T02:00:15.685Z,37.41
2023-06-05T02:01:15.748Z,42.22
2023-06-05T02:02:15.910Z,34.83
2023-06-05T02:03:15.935Z,42.16
2023-06-05T02:04:14.869Z,40.63
2023-06-05T02:05:14.965Z,41.36
2023-06-05T02:06:14.991Z,40.71
2023-06-05T02:07:15.066Z,42.09
2023-06-05T02:08:16.186Z,43.24
2023-06-05T02:09:15.148Z,38.34
2023-06-05T02:10:16.217Z,41.76
2023-06-05T02:11:16.230Z,36.56
2023-06-05T02:12:15.302Z,37.90
2023-06-05T02:13:15.316Z,40.83
2023-06-05T02:14:15.316Z,42.25
2023-06-05T02:15:16.648Z,38.12
2023-06-05T02:16:16.470Z,33.65
2023-06-05T02:17:15.444Z,42.03
2023-06-05T02:18:15.504Z,39.34
2023-06-05T02:19:16.520Z,38.48
2023-06-05T02:20:16.547Z,37.96
2023-06-05T02:21:15.609Z,38.64
2023-06-05T02:22:15.628Z,38.23
2023-06-05T02:23:15.674Z,38.70
2023-06-05T02:24:16.728Z,41.16
2023-06-05T02:25:16.749Z,39.24
2023-06-05T02:26:15.778Z,38.55
2023-06-05T02:27:15.822Z,38.97
2023-06-05T02:28:15.869Z,39.71
2023-06-05T02:29:16.888Z,41.63
2023-06-05T02:30:16.933Z,37.09
2023-06-05T02:31:15.952Z,38.98
2023-06-05T02:32:16.952Z,38.97
2023-06-05T02:33:16.925Z,38.73
2023-06-05T02:34:16.933Z,39.26
2023-06-05T02:35:15.978Z,38.93
2023-06-05T02:36:16.942Z,39.42
2023-06-05T02:37:15.951Z,40.37
2023-06-05T02:38:16.995Z,39.12
2023-06-05T02:39:17.005Z,38.96
2023-06-05T02:40:16.028Z,40.19
2023-06-05T02:41:17.051Z,39.15
2023-06-05T02:42:16.049Z,37.21
2023-06-05T02:43:17.069Z,36.13
2023-06-05T02:44:16.140Z,37.21
2023-06-05T02:45:17.175Z,38.37
2023-06-05T02:46:16.252Z,40.36
2023-06-05T02:47:17.219Z,38.69
2023-06-05T02:48:17.223Z,38.92
2023-06-05T02:49:16.235Z,36.25
2023-06-05T02:50:16.261Z,37.94
2023-06-05T02:51:16.299Z,38.70
2023-06-05T02:52:17.274Z,36.12
2023-06-05T02:53:17.259Z,36.79
2023-06-05T02:54:16.250Z,38.17
2023-06-05T02:55:16.258Z,37.12
2023-06-05T02:56:16.250Z,39.59
2023-06-05T02:57:16.272Z,37.61
2023-06-05T02:58:17.266Z,36.29
2023-06-05T02:59:17.248Z,36.21
2023-06-05T03:00:16.254Z,36.09
2023-06-05T03:01:17.265Z,37.08
2023-06-05T03:02:17.283Z,30.62
2023-06-05T03:03:17.331Z,37.44
2023-06-05T03:04:16.268Z,36.99
2023-06-05T03:05:16.277Z,37.65
2023-06-05T03:06:17.254Z,38.63
2023-06-05T03:07:16.247Z,38.41
2023-06-05T03:08:16.247Z,37.87
2023-06-05T03:09:17.262Z,38.25
2023-06-05T03:10:17.289Z,37.60
2023-06-05T03:11:16.276Z,36.07
2023-06-05T03:12:17.282Z,36.80
2023-06-05T03:13:17.269Z,36.27
2023-06-05T03:14:16.277Z,36.08
2023-06-05T03:15:16.292Z,35.89
2023-06-05T03:16:17.387Z,34.91
2023-06-05T03:17:17.299Z,37.12
2023-06-05T03:18:17.305Z,35.74
2023-06-05T03:19:16.306Z,33.52
2023-06-05T03:20:17.325Z,36.37
2023-06-05T03:21:16.297Z,36.21
2023-06-05T03:22:17.293Z,35.79
2023-06-05T03:23:16.324Z,35.64
2023-06-05T03:24:17.376Z,35.85
2023-06-05T03:25:17.380Z,35.28
2023-06-05T03:26:16.424Z,35.25
2023-06-05T03:27:16.422Z,35.56
2023-06-05T03:28:16.350Z,32.71
2023-06-05T03:29:17.332Z,33.01
2023-06-05T03:30:16.332Z,34.58
2023-06-05T03:31:16.322Z,33.64
2023-06-05T03:32:16.302Z,33.99
2023-06-05T03:33:17.394Z,33.73
2023-06-05T03:34:17.323Z,34.79
2023-06-05T03:35:17.323Z,34.63
2023-06-05T03:36:17.298Z,33.37
2023-06-05T03:37:17.289Z,37.45
2023-06-05T03:38:17.299Z,35.52
2023-06-05T03:39:16.301Z,33.99
2023-06-05T03:40:16.339Z,34.65
2023-06-05T03:41:16.283Z,36.95
2023-06-05T03:42:17.281Z,34.84
2023-06-05T03:43:17.293Z,36.87
2023-06-05T03:44:17.280Z,34.98
2023-06-05T03:45:16.269Z,33.55
2023-06-05T03:46:16.306Z,34.05
2023-06-05T03:47:17.312Z,33.28
2023-06-05T03:48:17.328Z,33.97
2023-06-05T03:49:17.259Z,34.06
2023-06-05T03:50:17.322Z,33.92
2023-06-05T03:51:17.276Z,33.14
2023-06-05T03:52:16.319Z,34.56
2023-06-05T03:53:16.263Z,34.43
2023-06-05T03:54:17.233Z,36.17
2023-06-05T03:55:17.251Z,34.25
2023-06-05T03:56:16.241Z,33.50
2023-06-05T03:57:17.210Z,36.02
2023-06-05T03:58:16.261Z,35.40
2023-06-05T03:59:16.242Z,34.39
2023-06-05T04:00:16.211Z,31.07
2023-06-05T04:01:16.208Z,34.85
2023-06-05T04:02:16.244Z,36.42
2023-06-05T04:03:16.308Z,36.22
2023-06-05T04:04:16.303Z,34.90
2023-06-05T04:05:17.245Z,35.47
2023-06-05T04:06:16.214Z,34.72
2023-06-05T04:07:16.216Z,34.05
2023-06-05T04:08:17.222Z,35.38
2023-06-05T04:09:17.222Z,36.12
2023-06-05T04:10:17.212Z,34.45
2023-06-05T04:11:16.219Z,34.26
2023-06-05T04:12:16.201Z,33.56
2023-06-05T04:13:16.214Z,35.35
2023-06-05T04:14:16.206Z,33.79
2023-06-05T04:15:16.229Z,32.93
2023-06-05T04:16:17.246Z,32.64
2023-06-05T04:17:17.271Z,32.05
2023-06-05T04:18:17.837Z,34.90
2023-06-05T04:19:17.241Z,35.56
2023-06-05T04:20:16.288Z,34.22
2023-06-05T04:21:17.247Z,32.30
2023-06-05T04:22:16.255Z,34.87
2023-06-05T04:23:17.279Z,34.99
2023-06-05T04:24:16.260Z,34.43
2023-06-05T04:25:16.276Z,32.96
2023-06-05T04:26:17.283Z,33.25
2023-06-05T04:27:17.297Z,32.49
2023-06-05T04:28:16.299Z,32.75
2023-06-05T04:29:17.294Z,33.73
2023-06-05T04:30:17.292Z,34.76
2023-06-05T04:31:16.351Z,35.67
2023-06-05T04:32:16.312Z,34.62
2023-06-05T04:33:17.317Z,34.29
2023-06-05T04:34:17.305Z,34.38
2023-06-05T04:35:17.324Z,33.44
2023-06-05T04:36:17.343Z,36.21
2023-06-05T04:37:16.312Z,33.06
2023-06-05T04:38:17.346Z,32.89
2023-06-05T04:39:17.345Z,32.53
2023-06-05T04:40:17.366Z,34.25
2023-06-05T04:41:17.359Z,34.42
2023-06-05T04:42:17.368Z,34.82
2023-06-05T04:43:16.358Z,32.69
2023-06-05T04:44:16.369Z,34.25
2023-06-05T04:45:16.380Z,33.65
2023-06-05T04:46:16.430Z,34.16
2023-06-05T04:47:17.398Z,36.13
2023-06-05T04:48:17.410Z,33.83
2023-06-05T04:49:17.447Z,33.01
2023-06-05T04:50:16.406Z,32.76
2023-06-05T04:51:17.423Z,32.08
2023-06-05T04:52:16.486Z,32.87
2023-06-05T04:53:17.434Z,35.20
2023-06-05T04:54:17.459Z,32.36
2023-06-05T04:55:17.471Z,33.55
2023-06-05T04:56:17.469Z,34.27
2023-06-05T04:57:16.494Z,33.71
2023-06-05T04:58:17.123Z,33.46
2023-06-05T04:59:17.511Z,32.99
2023-06-05T05:00:17.502Z,32.64
2023-06-05T05:01:16.560Z,33.42
2023-06-05T05:02:17.619Z,32.60
2023-06-05T05:03:16.553Z,32.48
2023-06-05T05:04:16.574Z,33.66
2023-06-05T05:05:17.593Z,32.71
2023-06-05T05:06:16.612Z,32.34
2023-06-05T05:07:16.743Z,34.30
2023-06-05T05:08:16.605Z,32.94
2023-06-05T05:09:17.623Z,32.05
2023-06-05T05:10:17.597Z,32.53
2023-06-05T05:11:17.569Z,34.16
2023-06-05T05:12:16.556Z,32.38
2023-06-05T05:13:17.573Z,31.20
2023-06-05T05:14:17.580Z,33.60
2023-06-05T05:15:17.569Z,31.57
2023-06-05T05:16:17.577Z,32.31
2023-06-05T05:17:17.540Z,33.61
2023-06-05T05:18:17.535Z,32.35
2023-06-05T05:19:17.525Z,33.97
2023-06-05T05:20:17.524Z,32.88
2023-06-05T05:21:16.606Z,31.63
2023-06-05T05:22:17.560Z,33.18
2023-06-05T05:23:18.710Z,31.42
2023-06-05T05:24:17.528Z,32.29
2023-06-05T05:25:16.549Z,32.68
2023-06-05T05:26:16.540Z,30.13
2023-06-05T05:27:17.582Z,30.89
2023-06-05T05:28:16.531Z,31.28
2023-06-05T05:29:16.538Z,33.56
2023-06-05T05:30:16.566Z,34.38
2023-06-05T05:31:16.594Z,33.55
2023-06-05T05:32:16.644Z,30.55
2023-06-05T05:33:16.632Z,31.75
2023-06-05T05:34:17.613Z,28.52
2023-06-05T05:35:16.663Z,30.47
2023-06-05T05:36:16.645Z,32.00
2023-06-05T05:37:17.649Z,31.59
2023-06-05T05:38:16.638Z,32.69
2023-06-05T05:39:16.677Z,32.06
2023-06-05T05:40:17.674Z,31.32
2023-06-05T05:41:17.635Z,32.36
2023-06-05T05:42:16.674Z,29.05
2023-06-05T05:43:17.656Z,34.19
2023-06-05T05:44:17.899Z,34.38
2023-06-05T05:45:17.645Z,32.94
2023-06-05T05:46:17.757Z,38.57
2023-06-05T05:47:16.695Z,43.91
2023-06-05T05:48:16.688Z,38.96
2023-06-05T05:49:17.791Z,38.03
2023-06-05T05:50:17.792Z,37.70
2023-06-05T05:51:17.770Z,31.84
2023-06-05T05:52:17.752Z,29.76
2023-06-05T05:53:16.837Z,26.23
2023-06-05T05:54:16.860Z,25.00
2023-06-05T05:55:17.954Z,26.27
2023-06-05T05:56:17.939Z,25.48
2023-06-05T05:57:16.943Z,30.67
2023-06-05T05:58:17.001Z,38.43
2023-06-05T05:59:18.015Z,25.00
2023-06-05T06:00:18.165Z,35.64
2023-06-05T06:01:18.136Z,41.52
2023-06-05T06:02:17.408Z,34.86
2023-06-05T06:03:18.259Z,32.27
2023-06-05T06:04:17.425Z,27.40
2023-06-05T06:05:18.253Z,28.30
2023-06-05T06:06:17.243Z,27.21
2023-06-05T06:07:18.512Z,30.24
2023-06-05T06:08:18.254Z,29.40
2023-06-05T06:09:18.261Z,29.00
2023-06-05T06:10:18.344Z,32.60
2023-06-05T06:11:18.786Z,36.06
2023-06-05T06:12:18.583Z,35.17
2023-06-05T06:13:18.452Z,39.99
2023-06-05T06:14:18.529Z,40.63
2023-06-05T06:15:18.575Z,36.56
2023-06-05T06:16:17.659Z,44.50
2023-06-05T06:17:18.614Z,42.43
2023-06-05T06:18:18.546Z,53.02
2023-06-05T06:19:18.632Z,57.08
2023-06-05T06:20:17.555Z,64.15
2023-06-05T06:21:17.562Z,63.10
2023-06-05T06:22:18.666Z,65.46
2023-06-05T06:23:18.622Z,70.02
2023-06-05T06:24:17.586Z,71.59
2023-06-05T06:25:18.585Z,73.55
2023-06-05T06:26:17.570Z,80.01
2023-06-05T06:27:34.083Z,83.17
2023-06-05T06:28:18.595Z,83.22
2023-06-05T06:29:18.613Z,84.34
2023-06-05T06:30:17.637Z,83.97
2023-06-05T06:31:18.651Z,80.56
2023-06-05T06:32:17.570Z,84.24
2023-06-05T06:33:17.582Z,91.51
2023-06-05T06:34:17.549Z,85.65
2023-06-05T06:35:18.569Z,89.07
2023-06-05T06:36:17.549Z,88.00
2023-06-05T06:37:18.562Z,86.84
2023-06-05T06:38:18.550Z,96.24
2023-06-05T06:39:17.550Z,89.19
2023-06-05T06:40:18.515Z,94.99
2023-06-05T06:41:17.544Z,101.26
2023-06-05T06:42:18.517Z,99.75
2023-06-05T06:43:18.539Z,104.62
2023-06-05T06:44:18.548Z,97.57
2023-06-05T06:45:18.612Z,97.33
2023-06-05T06:46:18.511Z,100.42
2023-06-05T06:47:18.489Z,105.94
2023-06-05T06:48:18.538Z,108.61
2023-06-05T06:49:17.535Z,102.07
2023-06-05T06:50:18.469Z,106.31
2023-06-05T06:51:18.504Z,98.35
2023-06-05T06:52:18.463Z,76.63
2023-06-05T06:53:17.445Z,76.46
2023-06-05T06:54:17.456Z,65.94
2023-06-05T06:55:17.472Z,53.87
2023-06-05T06:56:17.894Z,61.82
2023-06-05T06:57:18.734Z,59.34
2023-06-05T06:58:18.614Z,68.67
2023-06-05T06:59:17.715Z,78.71
2023-06-05T07:00:18.671Z,83.40
2023-06-05T07:01:17.962Z,83.90
2023-06-05T07:02:17.761Z,103.55
2023-06-05T07:03:19.206Z,106.44
2023-06-05T07:04:18.772Z,108.33
2023-06-05T07:05:17.862Z,110.22
2023-06-05T07:06:17.924Z,115.65
2023-06-05T07:07:18.959Z,113.41
2023-06-05T07:08:19.038Z,125.23
2023-06-05T07:09:19.002Z,107.99
2023-06-05T07:10:18.164Z,101.75
2023-06-05T07:11:19.304Z,98.66
2023-06-05T07:12:19.154Z,85.66
2023-06-05T07:13:18.125Z,90.00
2023-06-05T07:14:18.405Z,90.07
2023-06-05T07:15:19.427Z,83.07
2023-06-05T07:16:19.212Z,79.73
2023-06-05T07:17:18.218Z,77.48
2023-06-05T07:18:19.214Z,79.07
2023-06-05T07:19:19.178Z,78.53
2023-06-05T07:20:19.240Z,84.07
2023-06-05T07:21:19.241Z,94.87
2023-06-05T07:22:19.231Z,103.18
2023-06-05T07:23:21.401Z,111.28
2023-06-05T07:24:18.243Z,111.82
2023-06-05T07:25:19.398Z,111.14
2023-06-05T07:26:19.415Z,114.88
2023-06-05T07:27:19.241Z,117.85
2023-06-05T07:28:18.398Z,121.44
2023-06-05T07:29:19.328Z,120.89
2023-06-05T07:30:19.215Z,121.68
2023-06-05T07:31:19.348Z,125.58
2023-06-05T07:32:18.244Z,121.45
2023-06-05T07:33:29.792Z,122.90
2023-06-05T07:34:19.222Z,123.44
2023-06-05T07:35:19.201Z,124.67
2023-06-05T07:36:19.189Z,123.99
2023-06-05T07:37:19.486Z,128.79
2023-06-05T07:38:18.147Z,122.70
2023-06-05T07:39:19.359Z,128.00
2023-06-05T07:40:19.146Z,124.07
2023-06-05T07:41:18.845Z,139.22
2023-06-05T07:42:19.189Z,139.55
2023-06-05T07:43:19.210Z,140.48
2023-06-05T07:44:19.110Z,141.32
2023-06-05T07:45:19.185Z,145.94
2023-06-05T07:46:19.185Z,157.38
2023-06-05T07:47:18.115Z,129.41
2023-06-05T07:48:19.795Z,123.67
2023-06-05T07:49:19.080Z,117.86
2023-06-05T07:50:19.346Z,113.54
2023-06-05T07:51:19.153Z,115.48
2023-06-05T07:52:19.402Z,103.78
2023-06-05T07:53:20.965Z,107.11
2023-06-05T07:54:18.344Z,120.13
2023-06-05T07:55:19.028Z,123.60
2023-06-05T07:56:18.257Z,132.45
2023-06-05T07:57:19.107Z,140.16
2023-06-05T07:58:19.032Z,138.87
2023-06-05T07:59:19.014Z,143.47
2023-06-05T08:00:19.003Z,146.42
2023-06-05T08:01:18.096Z,151.86
2023-06-05T08:02:19.253Z,149.67
2023-06-05T08:03:19.630Z,146.50
2023-06-05T08:04:19.098Z,144.80
2023-06-05T08:05:17.951Z,149.68
2023-06-05T08:06:18.974Z,151.04
2023-06-05T08:07:19.052Z,148.25
2023-06-05T08:08:18.996Z,143.95
2023-06-05T08:09:18.927Z,152.62
2023-06-05T08:10:18.918Z,161.16
2023-06-05T08:11:18.911Z,164.76
2023-06-05T08:12:17.966Z,164.74
2023-06-05T08:13:18.964Z,169.86
2023-06-05T08:14:18.934Z,166.55
2023-06-05T08:15:17.915Z,169.34
2023-06-05T08:16:18.031Z,171.47
2023-06-05T08:17:18.103Z,170.79
2023-06-05T08:18:19.066Z,168.62
2023-06-05T08:19:18.151Z,169.56
2023-06-05T08:20:19.475Z,174.16
2023-06-05T08:21:19.261Z,172.86
2023-06-05T08:22:19.283Z,172.34
2023-06-05T08:23:19.323Z,174.80
2023-06-05T08:24:19.332Z,176.83
2023-06-05T08:25:19.407Z,177.05
2023-06-05T08:26:19.417Z,177.79
2023-06-05T08:27:19.421Z,182.40
2023-06-05T08:28:19.533Z,176.91
2023-06-05T08:29:19.729Z,173.11
2023-06-05T08:30:18.525Z,183.90
2023-06-05T08:31:19.622Z,188.12
2023-06-05T08:32:19.609Z,204.52
2023-06-05T08:33:20.554Z,197.93
2023-06-05T08:34:18.633Z,210.03
2023-06-05T08:35:19.685Z,210.56
2023-06-05T08:36:19.771Z,204.82
2023-06-05T08:37:19.732Z,206.14
2023-06-05T08:38:19.736Z,201.13
2023-06-05T08:39:18.770Z,204.14
2023-06-05T08:40:18.780Z,205.14
2023-06-05T08:41:19.943Z,168.57
2023-06-05T08:42:20.539Z,181.43
2023-06-05T08:43:18.918Z,175.69
2023-06-05T08:44:19.953Z,157.00
2023-06-05T08:45:19.950Z,158.94
2023-06-05T08:46:20.028Z,166.99
2023-06-05T08:47:20.191Z,178.87
2023-06-05T08:48:20.181Z,179.86
2023-06-05T08:49:20.128Z,168.30
2023-06-05T08:50:20.280Z,177.52
2023-06-05T08:51:19.138Z,336.38
2023-06-05T08:52:19.167Z,230.35
2023-06-05T08:53:21.846Z,201.45
2023-06-05T08:54:19.266Z,165.07
2023-06-05T08:55:19.152Z,165.87
2023-06-05T08:56:19.178Z,158.84
2023-06-05T08:57:19.951Z,156.43
2023-06-05T08:58:20.128Z,150.62
2023-06-05T08:59:20.171Z,164.82
2023-06-05T09:00:20.214Z,170.17
2023-06-05T09:01:20.143Z,175.59
2023-06-05T09:02:20.157Z,172.08
2023-06-05T09:03:20.095Z,171.33
2023-06-05T09:04:20.095Z,168.70
2023-06-05T09:05:20.183Z,168.81
2023-06-05T09:06:20.104Z,164.64
2023-06-05T09:07:20.072Z,164.53
2023-06-05T09:08:19.138Z,165.05
2023-06-05T09:09:20.038Z,159.51
2023-06-05T09:10:20.043Z,158.65
2023-06-05T09:11:20.045Z,154.88
2023-06-05T09:12:20.110Z,150.61
2023-06-05T09:13:20.031Z,148.74
2023-06-05T09:14:20.019Z,151.30
2023-06-05T09:15:20.037Z,155.17
2023-06-05T09:16:20.194Z,163.56
2023-06-05T09:17:19.985Z,162.29
2023-06-05T09:18:18.989Z,158.97
2023-06-05T09:19:19.976Z,165.27
2023-06-05T09:20:19.993Z,163.54
2023-06-05T09:21:19.979Z,165.62
2023-06-05T09:22:19.976Z,161.96
2023-06-05T09:24:20.073Z,155.63
2023-06-05T09:25:19.959Z,152.28
2023-06-05T09:26:21.295Z,154.62
2023-06-05T09:27:18.941Z,157.23
2023-06-05T09:28:19.963Z,163.74
2023-06-05T09:29:20.039Z,150.69
2023-06-05T09:30:19.987Z,142.56
2023-06-05T09:31:20.111Z,148.58
2023-06-05T09:32:20.131Z,160.47
2023-06-05T09:33:20.154Z,162.09
2023-06-05T09:34:20.166Z,147.75
2023-06-05T09:35:20.320Z,149.53
2023-06-05T09:36:20.240Z,155.67
2023-06-05T09:37:20.301Z,153.73
2023-06-05T09:38:20.443Z,156.63
2023-06-05T09:39:20.343Z,153.27
2023-06-05T09:40:20.391Z,156.25
2023-06-05T09:41:19.387Z,158.57
2023-06-05T09:42:20.464Z,157.19
2023-06-05T09:43:19.638Z,149.13
2023-06-05T09:44:20.549Z,146.23
2023-06-05T09:45:20.577Z,145.77
2023-06-05T09:46:20.673Z,147.23
2023-06-05T09:47:22.576Z,126.81
2023-06-05T09:48:20.869Z,142.95
2023-06-05T09:49:20.635Z,142.75
2023-06-05T09:50:20.693Z,137.40
2023-06-05T09:51:19.805Z,134.79
2023-06-05T09:52:20.978Z,142.23
2023-06-05T09:53:20.881Z,124.71
2023-06-05T09:54:20.598Z,135.06
2023-06-05T09:55:20.617Z,126.68
2023-06-05T09:56:20.568Z,126.49
2023-06-05T09:57:19.570Z,122.08
2023-06-05T09:58:20.551Z,116.17
2023-06-05T09:59:19.604Z,113.84
2023-06-05T10:00:20.129Z,111.22
2023-06-05T10:01:20.618Z,101.00
2023-06-05T10:02:19.546Z,98.23
2023-06-05T10:03:20.530Z,97.73
2023-06-05T10:04:20.518Z,91.75
2023-06-05T10:05:19.955Z,93.48
2023-06-05T10:06:20.770Z,83.90
2023-06-05T10:07:20.561Z,89.69
2023-06-05T10:08:19.520Z,95.33
2023-06-05T10:09:20.488Z,96.84
2023-06-05T10:10:20.575Z,78.94
2023-06-05T10:11:20.648Z,70.02
2023-06-05T10:12:20.864Z,81.05
2023-06-05T10:13:20.064Z,93.49
2023-06-05T10:14:20.836Z,90.17
2023-06-05T10:15:20.842Z,87.38
2023-06-05T10:16:26.227Z,67.56
2023-06-05T10:17:21.023Z,68.00
2023-06-05T10:18:20.898Z,67.82
2023-06-05T10:19:20.890Z,66.88
2023-06-05T10:20:20.942Z,62.74
2023-06-05T10:21:19.949Z,60.53
2023-06-05T10:22:19.951Z,69.92
2023-06-05T10:23:20.099Z,63.80
2023-06-05T10:24:19.885Z,79.36
2023-06-05T10:25:19.858Z,77.39
2023-06-05T10:26:19.872Z,53.00
2023-06-05T10:27:20.866Z,72.71
2023-06-05T10:28:20.840Z,79.19
2023-06-05T10:29:20.840Z,77.86
2023-06-05T10:30:19.828Z,60.86
2023-06-05T10:31:20.901Z,63.98
2023-06-05T10:32:19.846Z,62.40
2023-06-05T10:33:20.120Z,63.89
2023-06-05T10:34:19.809Z,63.68
2023-06-05T10:35:20.806Z,66.71
2023-06-05T10:36:20.834Z,70.00
2023-06-05T10:37:19.847Z,60.63
2023-06-05T10:38:20.758Z,66.06
2023-06-05T10:39:19.946Z,59.77
2023-06-05T10:40:20.956Z,71.01
2023-06-05T10:41:20.961Z,87.95
2023-06-05T10:42:21.553Z,103.11
2023-06-05T10:43:21.095Z,115.12
2023-06-05T10:44:21.132Z,118.38
2023-06-05T10:45:21.228Z,124.89
2023-06-05T10:46:21.310Z,129.52
2023-06-05T10:47:20.557Z,131.82
2023-06-05T10:48:20.397Z,138.28
2023-06-05T10:49:21.658Z,140.14
2023-06-05T10:50:20.733Z,138.67
2023-06-05T10:51:20.591Z,140.34
2023-06-05T10:52:20.651Z,140.74
2023-06-05T10:53:20.700Z,142.65
2023-06-05T10:54:21.763Z,144.50
2023-06-05T10:55:20.807Z,145.88
2023-06-05T10:56:20.865Z,148.68
2023-06-05T10:57:21.914Z,147.19
2023-06-05T10:58:20.913Z,149.27
2023-06-05T10:59:20.964Z,150.67
2023-06-05T11:00:21.991Z,151.17
2023-06-05T11:01:21.207Z,149.32
2023-06-05T11:02:22.099Z,151.08
2023-06-05T11:03:22.065Z,154.62
2023-06-05T11:04:22.127Z,152.16
2023-06-05T11:05:21.073Z,152.46
2023-06-05T11:06:22.081Z,152.02
2023-06-05T11:07:21.114Z,152.59
2023-06-05T11:08:22.166Z,152.01
2023-06-05T11:09:21.227Z,155.29
2023-06-05T11:10:21.256Z,154.03
2023-06-05T11:11:21.264Z,152.95
2023-06-05T11:12:21.272Z,153.24
2023-06-05T11:13:22.329Z,156.99
2023-06-05T11:14:22.313Z,152.18
2023-06-05T11:15:21.317Z,153.06
2023-06-05T11:16:22.412Z,153.46
2023-06-05T11:17:22.345Z,153.95
2023-06-05T11:18:22.316Z,152.71
2023-06-05T11:19:21.304Z,155.90
2023-06-05T11:20:21.296Z,154.58
2023-06-05T11:21:22.369Z,154.15
2023-06-05T11:22:21.294Z,154.04
2023-06-05T11:23:22.333Z,155.09
2023-06-05T11:24:21.291Z,157.02
2023-06-05T11:25:21.258Z,153.73
2023-06-05T11:26:22.258Z,154.03
2023-06-05T11:27:22.268Z,155.84
2023-06-05T11:28:22.288Z,154.90
2023-06-05T11:29:22.290Z,154.43
2023-06-05T11:30:34.944Z,157.30
2023-06-05T11:31:22.830Z,157.46
2023-06-05T11:32:22.353Z,157.58
2023-06-05T11:33:22.945Z,156.63
2023-06-05T11:34:21.293Z,156.82
2023-06-05T11:35:21.283Z,156.09
2023-06-05T11:36:21.254Z,154.42
2023-06-05T11:37:22.279Z,153.31
2023-06-05T11:38:23.641Z,155.50
2023-06-05T11:39:21.296Z,158.94
2023-06-05T11:40:22.256Z,155.48
2023-06-05T11:41:22.238Z,160.41
2023-06-05T11:42:22.221Z,154.71
2023-06-05T11:43:21.242Z,154.92
2023-06-05T11:44:21.213Z,153.29
2023-06-05T11:45:22.220Z,156.29
2023-06-05T11:46:22.241Z,153.38
2023-06-05T11:47:22.218Z,149.28
2023-06-05T11:48:22.191Z,152.09
2023-06-05T11:49:22.190Z,151.56
2023-06-05T11:50:21.166Z,150.91
2023-06-05T11:51:22.171Z,152.80
2023-06-05T11:52:22.182Z,152.90
2023-06-05T11:53:22.157Z,151.62
2023-06-05T11:54:22.141Z,153.45
2023-06-05T11:55:22.144Z,154.39
2023-06-05T11:56:21.139Z,150.56
2023-06-05T11:57:21.123Z,150.27
2023-06-05T11:58:22.175Z,153.09
2023-06-05T11:59:22.168Z,153.51
2023-06-05T12:00:22.133Z,150.89
2023-06-05T12:01:22.107Z,151.80
2023-06-05T12:02:21.120Z,153.52
2023-06-05T12:03:21.191Z,151.59
2023-06-05T12:04:21.239Z,153.44
2023-06-05T12:05:21.086Z,149.36
2023-06-05T12:06:21.073Z,151.75
2023-06-05T12:07:21.087Z,150.92
2023-06-05T12:08:21.115Z,150.43
2023-06-05T12:09:21.071Z,151.38
2023-06-05T12:10:21.079Z,152.20
2023-06-05T12:11:22.039Z,148.87
2023-06-05T12:12:21.043Z,151.83
2023-06-05T12:13:22.058Z,150.47
2023-06-05T12:14:22.052Z,151.01
2023-06-05T12:15:22.029Z,150.33
2023-06-05T12:16:22.044Z,148.77
2023-06-05T12:17:22.009Z,148.62
2023-06-05T12:18:21.031Z,150.80
2023-06-05T12:19:22.098Z,147.74
2023-06-05T12:20:20.968Z,149.08
2023-06-05T12:21:22.048Z,148.82
2023-06-05T12:22:22.024Z,151.54
2023-06-05T12:23:22.004Z,150.64
2023-06-05T12:24:21.969Z,148.36
2023-06-05T12:25:21.638Z,148.07
2023-06-05T12:26:20.959Z,147.92
2023-06-05T12:27:21.937Z,147.06
2023-06-05T12:28:20.927Z,147.58
2023-06-05T12:29:20.939Z,148.31
2023-06-05T12:30:21.927Z,150.80
2023-06-05T12:31:21.959Z,146.38
2023-06-05T12:32:21.977Z,148.21
2023-06-05T12:33:21.893Z,147.00
2023-06-05T12:34:21.895Z,147.70
2023-06-05T12:35:20.904Z,150.66
2023-06-05T12:36:20.882Z,145.15
2023-06-05T12:37:20.876Z,147.83
2023-06-05T12:38:20.894Z,146.45
2023-06-05T12:39:21.877Z,149.32
2023-06-05T12:40:34.913Z,147.04
2023-06-05T12:41:21.860Z,147.39
2023-06-05T12:42:20.857Z,148.43
2023-06-05T12:43:20.849Z,148.39
2023-06-05T12:44:21.854Z,150.31